Time;durP1;ratioP1;P1;durP2;ratioP2;P2;SDS_P1;SDS_P2;PMS_P1;PMS_P2;Temp;Humidity;BMP_temperature;BMP_pressure;BME280_temperature;BME280_humidity;BME280_pressure;Samples;Min_cycle;Max_cycle;Signal;HPM_P1;HPM_P2
2021/11/29 00:02:07;;;;;;;15.57;11.68;;;;;;;5.41;100.00;98203.06;5091301;28;20114;-67
2021/11/29 00:04:33;;;;;;;16.27;12.02;;;;;;;5.34;100.00;98191.38;5088953;28;20035;-66
2021/11/29 00:06:58;;;;;;;16.52;11.98;;;;;;;5.26;100.00;98175.41;5091016;28;20024;-67
2021/11/29 00:09:23;;;;;;;18.13;14.13;;;;;;;5.31;100.00;98186.38;5073012;28;20387;-67
2021/11/29 00:11:49;;;;;;;17.50;13.40;;;;;;;5.29;100.00;98196.31;5073000;28;20064;-67
2021/11/29 00:14:14;;;;;;;17.55;12.60;;;;;;;5.29;100.00;98191.00;5091033;28;20384;-67
2021/11/29 00:16:40;;;;;;;16.33;13.30;;;;;;;5.28;100.00;98202.63;5091048;28;20456;-67
2021/11/29 00:19:06;;;;;;;20.13;13.88;;;;;;;5.20;100.00;98204.38;5091228;28;20059;-68
2021/11/29 00:21:33;;;;;;;17.98;13.77;;;;;;;5.19;100.00;98227.44;5091012;28;20032;-68
2021/11/29 00:23:59;;;;;;;18.13;14.18;;;;;;;5.14;100.00;98226.25;5090849;28;20056;-68
2021/11/29 00:26:25;;;;;;;19.60;14.40;;;;;;;5.11;100.00;98224.72;5072680;28;20047;-67
2021/11/29 00:28:50;;;;;;;20.73;14.10;;;;;;;5.19;100.00;98242.56;5090736;28;20027;-67
2021/11/29 00:31:16;;;;;;;16.92;13.00;;;;;;;5.15;100.00;98249.16;5090588;28;20047;-67
2021/11/29 00:33:42;;;;;;;19.95;14.32;;;;;;;5.06;100.00;98261.53;5090701;28;20024;-67
2021/11/29 00:36:08;;;;;;;18.70;14.70;;;;;;;5.05;100.00;98257.22;5078000;28;20040;-67
2021/11/29 00:38:34;;;;;;;21.02;13.73;;;;;;;5.09;100.00;98279.00;5097282;28;20540;-66
2021/11/29 00:40:59;;;;;;;17.45;14.05;;;;;;;5.11;100.00;98285.84;5097138;28;20055;-67
2021/11/29 00:43:25;;;;;;;18.48;14.38;;;;;;;5.04;100.00;98297.19;5079244;28;20103;-67
2021/11/29 00:45:51;;;;;;;19.88;13.70;;;;;;;5.07;100.00;98294.25;5096852;28;20556;-67
2021/11/29 00:48:17;;;;;;;19.52;14.00;;;;;;;5.03;100.00;98293.69;5096812;28;20028;-67
2021/11/29 00:50:43;;;;;;;16.38;13.00;;;;;;;4.96;100.00;98297.13;5078879;28;20019;-67
2021/11/29 00:53:11;;;;;;;19.08;14.50;;;;;;;4.94;100.00;98299.09;5097116;28;20069;-67
2021/11/29 00:55:38;;;;;;;16.77;13.82;;;;;;;4.97;100.00;98296.13;5097102;28;20031;-67
2021/11/29 00:58:04;;;;;;;16.52;12.35;;;;;;;4.92;100.00;98287.75;5097227;28;20480;-67
2021/11/29 01:00:30;;;;;;;19.02;13.88;;;;;;;4.94;100.00;98283.16;5097071;28;20046;-67
2021/11/29 01:02:56;;;;;;;17.80;13.50;;;;;;;4.95;100.00;98277.69;5094701;28;20384;-68
2021/11/29 01:05:22;;;;;;;17.95;13.30;;;;;;;4.97;99.71;98282.84;5097227;28;20040;-67
2021/11/29 01:07:48;;;;;;;15.40;12.82;;;;;;;4.93;99.42;98279.66;5078985;28;20032;-66
2021/11/29 01:10:15;;;;;;;17.95;12.77;;;;;;;4.81;100.00;98264.09;5078727;28;20118;-67
2021/11/29 01:12:42;;;;;;;16.92;13.43;;;;;;;4.90;99.72;98287.91;5097237;28;20024;-67
2021/11/29 01:15:10;;;;;;;18.25;14.20;;;;;;;4.83;100.00;98281.53;5097213;28;20085;-67
2021/11/29 01:17:36;;;;;;;18.63;14.35;;;;;;;4.76;100.00;98285.75;5097188;28;20028;-67
2021/11/29 01:20:04;;;;;;;19.92;14.05;;;;;;;4.76;100.00;98275.16;5097010;28;20040;-67
2021/11/29 01:22:29;;;;;;;20.42;14.85;;;;;;;4.80;99.46;98276.50;5097164;28;20020;-67
2021/11/29 01:24:55;;;;;;;18.48;13.52;;;;;;;4.75;99.63;98282.25;5078984;28;20127;-67
2021/11/29 01:27:20;;;;;;;19.63;13.20;;;;;;;4.67;99.80;98266.25;5096829;28;20036;-67
2021/11/29 01:29:46;;;;;;;17.88;13.55;;;;;;;4.67;100.00;98274.22;5078704;28;20644;-67
2021/11/29 01:32:11;;;;;;;20.30;13.77;;;;;;;4.70;100.00;98281.88;5096931;28;20035;-67
2021/11/29 01:34:37;;;;;;;22.27;14.65;;;;;;;4.60;100.00;98269.63;5096920;28;20101;-67
2021/11/29 01:37:02;;;;;;;18.60;14.35;;;;;;;4.64;100.00;98282.47;5078808;28;20078;-67
2021/11/29 01:39:28;;;;;;;19.30;14.25;;;;;;;4.69;99.68;98279.38;5097103;28;20131;-67
2021/11/29 01:41:53;;;;;;;21.27;13.48;;;;;;;4.70;99.64;98286.34;5096949;28;20020;-67
2021/11/29 01:44:19;;;;;;;18.70;13.48;;;;;;;4.65;99.57;98278.81;5096864;28;20034;-67
2021/11/29 01:46:45;;;;;;;19.30;13.65;;;;;;;4.60;100.00;98277.59;5075899;28;20488;-67
2021/11/29 01:49:11;;;;;;;20.83;13.70;;;;;;;4.71;99.04;98278.25;5093901;28;20116;-66
2021/11/29 01:51:36;;;;;;;19.65;12.38;;;;;;;4.65;98.29;98270.03;5093817;28;20551;-67
2021/11/29 01:54:03;;;;;;;18.70;12.60;;;;;;;4.62;98.98;98273.00;5093485;28;20112;-67
2021/11/29 01:56:29;;;;;;;18.55;13.13;;;;;;;4.61;98.89;98266.84;5093817;28;20376;-67
2021/11/29 01:58:54;;;;;;;18.00;13.55;;;;;;;4.58;99.04;98267.13;5093323;28;20032;-67
2021/11/29 02:01:23;;;;;;;18.63;13.38;;;;;;;4.53;99.51;98263.25;5093379;28;20028;-67
2021/11/29 02:03:53;;;;;;;20.77;13.25;;;;;;;4.50;99.76;98268.84;5093408;28;20024;-67
2021/11/29 02:06:19;;;;;;;16.83;12.57;;;;;;;4.35;99.98;98251.72;5093640;28;20024;-67
2021/11/29 02:08:44;;;;;;;18.13;12.38;;;;;;;4.51;99.34;98268.69;5093495;28;20097;-67
2021/11/29 02:11:10;;;;;;;17.25;12.38;;;;;;;4.37;99.52;98265.69;5093340;28;20085;-67
2021/11/29 02:13:36;;;;;;;20.17;13.30;;;;;;;4.40;99.98;98276.88;5075170;28;20024;-67
2021/11/29 02:16:04;;;;;;;16.77;12.57;;;;;;;4.37;99.37;98255.94;5093468;28;20115;-67
2021/11/29 02:18:33;;;;;;;17.90;12.18;;;;;;;4.38;99.53;98254.09;5075256;28;20020;-67
2021/11/29 02:21:18;;;;;;;16.90;11.52;;;;;;;4.36;99.54;98269.34;5093230;28;20127;-67
2021/11/29 02:23:47;;;;;;;16.48;12.75;;;;;;;4.30;99.94;98259.31;5092966;28;20055;-67
2021/11/29 02:26:14;;;;;;;16.67;11.98;;;;;;;4.28;100.00;98254.16;5074488;28;20032;-67
2021/11/29 02:28:42;;;;;;;19.60;12.43;;;;;;;4.25;100.00;98257.09;5092794;28;20486;-67
2021/11/29 02:31:10;;;;;;;17.88;11.73;;;;;;;4.24;100.00;98252.78;5074605;28;20457;-67
2021/11/29 02:33:36;;;;;;;15.85;12.10;;;;;;;4.27;100.00;98259.59;5092848;28;20059;-67
2021/11/29 02:36:01;;;;;;;16.05;12.43;;;;;;;4.19;100.00;98249.72;5093006;28;20055;-67
2021/11/29 02:38:27;;;;;;;15.93;11.75;;;;;;;4.17;100.00;98253.50;5092753;28;20028;-66
2021/11/29 02:40:52;;;;;;;16.30;12.48;;;;;;;4.19;100.00;98259.47;5092233;28;20039;-67
2021/11/29 02:43:18;;;;;;;17.63;12.70;;;;;;;4.06;100.00;98245.69;5092703;28;20034;-67
2021/11/29 02:45:43;;;;;;;17.60;12.30;;;;;;;4.15;100.00;98242.19;5092620;28;20036;-67
2021/11/29 02:48:09;;;;;;;17.88;12.60;;;;;;;4.20;100.00;98247.91;5092546;28;20106;-67
2021/11/29 02:50:36;;;;;;;17.45;12.82;;;;;;;4.17;100.00;98248.19;5092659;28;20028;-67
2021/11/29 02:53:05;;;;;;;20.10;13.60;;;;;;;4.09;100.00;98251.56;5089967;28;20032;-67
2021/11/29 02:55:31;;;;;;;19.60;12.80;;;;;;;4.02;100.00;98257.59;5092469;28;20042;-67
2021/11/29 02:57:56;;;;;;;18.23;13.30;;;;;;;4.00;100.00;98252.41;5091991;28;20024;-67
2021/11/29 03:00:22;;;;;;;19.73;13.98;;;;;;;4.03;100.00;98267.22;5092145;28;20043;-67
2021/11/29 03:03:02;;;;;;;20.17;13.57;;;;;;;4.02;100.00;98278.78;5092424;28;20085;-67
2021/11/29 03:05:27;;;;;;;20.23;13.20;;;;;;;3.96;100.00;98269.59;5091182;28;20024;-67
2021/11/29 03:07:53;;;;;;;21.17;14.40;;;;;;;4.02;100.00;98284.09;5092008;28;20038;-67
2021/11/29 03:10:18;;;;;;;19.60;13.55;;;;;;;4.01;100.00;98277.13;5092085;28;20074;-67
2021/11/29 03:12:44;;;;;;;20.15;14.32;;;;;;;3.95;100.00;98253.84;5092179;28;20488;-67
2021/11/29 03:15:09;;;;;;;20.02;12.73;;;;;;;4.00;100.00;98256.91;5091917;28;20392;-67
2021/11/29 03:17:35;;;;;;;17.13;13.15;;;;;;;3.99;100.00;98264.03;5091955;28;20028;-67
2021/11/29 03:20:00;;;;;;;20.58;14.50;;;;;;;4.00;100.00;98286.09;5073701;28;20370;-67
2021/11/29 03:22:26;;;;;;;23.15;15.25;;;;;;;4.02;100.00;98286.75;5091707;28;20028;-67
2021/11/29 03:24:51;;;;;;;20.95;14.52;;;;;;;3.98;100.00;98265.00;5073470;28;20384;-66
2021/11/29 03:27:19;;;;;;;23.70;14.18;;;;;;;4.05;100.00;98281.16;5091265;28;20265;-67
2021/11/29 03:29:48;;;;;;;25.15;15.38;;;;;;;4.13;100.00;98260.06;5073437;28;20040;-66
2021/11/29 03:32:13;;;;;;;25.27;15.82;;;;;;;4.28;100.00;98258.59;5091406;28;20028;-67
2021/11/29 03:34:39;;;;;;;27.17;16.17;;;;;;;4.17;100.00;98253.50;5091532;28;20031;-66
2021/11/29 03:37:05;;;;;;;25.75;15.10;;;;;;;4.17;100.00;98258.81;5073349;28;20036;-67
2021/11/29 03:39:30;;;;;;;26.80;15.77;;;;;;;4.11;100.00;98248.75;5091475;28;20628;-67
2021/11/29 03:41:59;;;;;;;25.35;17.13;;;;;;;4.23;100.00;98250.28;5073232;28;20063;-67
2021/11/29 03:44:25;;;;;;;27.30;16.35;;;;;;;4.18;100.00;98255.16;5091320;28;20103;-67
2021/11/29 03:46:53;;;;;;;26.70;16.20;;;;;;;4.21;100.00;98255.72;5073174;28;20173;-67
2021/11/29 03:49:19;;;;;;;32.95;16.10;;;;;;;4.21;100.00;98246.91;5091252;28;20052;-67
2021/11/29 03:51:44;;;;;;;26.73;17.25;;;;;;;4.15;100.00;98242.19;5091431;28;20387;-67
2021/11/29 03:54:10;;;;;;;27.17;16.92;;;;;;;4.24;100.00;98231.56;5091177;28;20050;-66
2021/11/29 03:56:36;;;;;;;26.88;16.95;;;;;;;4.26;100.00;98250.78;5091416;28;20119;-67
2021/11/29 03:59:03;;;;;;;24.77;15.05;;;;;;;4.19;100.00;98259.47;5073130;28;20028;-67
2021/11/29 04:01:29;;;;;;;27.77;16.02;;;;;;;4.18;100.00;98279.88;5091279;28;20028;-67
2021/11/29 04:03:54;;;;;;;25.90;16.92;;;;;;;4.16;100.00;98270.41;5090937;28;20383;-67
2021/11/29 04:06:20;;;;;;;30.13;17.23;;;;;;;4.03;100.00;98254.78;5094427;28;20020;-67
2021/11/29 04:08:45;;;;;;;27.77;16.02;;;;;;;4.09;100.00;98269.28;5095954;28;20065;-67
2021/11/29 04:11:11;;;;;;;23.45;15.23;;;;;;;4.09;100.00;98278.09;5095277;28;20027;-67
2021/11/29 04:13:37;;;;;;;25.02;16.13;;;;;;;4.04;100.00;98274.19;5096161;28;20114;-67
2021/11/29 04:16:03;;;;;;;26.73;16.63;;;;;;;4.09;100.00;98271.94;5096588;28;20106;-67
2021/11/29 04:18:28;;;;;;;31.13;17.00;;;;;;;4.15;100.00;98290.78;5094830;28;20150;-67
2021/11/29 04:20:56;;;;;;;26.02;16.10;;;;;;;4.09;100.00;98286.03;5092919;28;20026;-67
2021/11/29 04:23:21;;;;;;;26.35;16.00;;;;;;;4.13;100.00;98279.47;5077364;28;20032;-67
2021/11/29 04:25:52;;;;;;;25.02;16.33;;;;;;;4.14;100.00;98285.63;5096585;28;20112;-67
2021/11/29 04:28:18;;;;;;;24.33;16.48;;;;;;;4.15;100.00;98296.06;5092971;28;20052;-67
2021/11/29 04:30:44;;;;;;;26.05;14.95;;;;;;;4.18;100.00;98300.25;5093132;28;20031;-67
2021/11/29 04:33:10;;;;;;;25.00;15.45;;;;;;;4.13;100.00;98297.22;5095146;28;20090;-66
2021/11/29 04:35:36;;;;;;;21.58;14.35;;;;;;;4.09;100.00;98294.00;5094548;28;20028;-66
2021/11/29 04:38:02;;;;;;;22.98;14.40;;;;;;;4.19;100.00;98312.53;5096733;28;20028;-66
2021/11/29 04:40:27;;;;;;;22.50;13.85;;;;;;;4.18;100.00;98314.34;5097811;28;20024;-66
2021/11/29 04:42:53;;;;;;;21.88;13.65;;;;;;;4.18;100.00;98317.00;5094583;28;20420;-66
2021/11/29 04:45:18;;;;;;;18.95;13.38;;;;;;;4.27;100.00;98320.63;5090756;28;20060;-66
2021/11/29 04:47:44;;;;;;;20.52;13.85;;;;;;;4.28;100.00;98332.88;5090647;28;20040;-66
2021/11/29 04:50:10;;;;;;;22.55;14.57;;;;;;;4.23;100.00;98319.22;5090714;28;20039;-66
2021/11/29 04:52:36;;;;;;;21.00;13.93;;;;;;;4.29;100.00;98327.44;5090838;28;20036;-67
2021/11/29 04:55:04;;;;;;;19.50;13.35;;;;;;;4.39;99.61;98327.44;5090433;28;20024;-67
2021/11/29 04:57:29;;;;;;;17.77;12.75;;;;;;;4.40;99.34;98327.28;5090560;28;20028;-67
2021/11/29 04:59:55;;;;;;;19.45;12.98;;;;;;;4.33;99.91;98328.81;5090382;28;20491;-67
2021/11/29 05:02:21;;;;;;;21.05;13.60;;;;;;;4.28;100.00;98341.69;5090488;28;20444;-67
2021/11/29 05:04:47;;;;;;;20.55;13.23;;;;;;;4.30;100.00;98341.56;5090687;28;20032;-67
2021/11/29 05:07:14;;;;;;;20.65;12.93;;;;;;;4.46;98.45;98339.13;5072250;28;20020;-66
2021/11/29 05:09:42;;;;;;;16.55;11.48;;;;;;;4.41;98.69;98350.16;5090392;28;20063;-67
2021/11/29 05:12:09;;;;;;;19.55;12.65;;;;;;;4.43;98.11;98347.38;5090803;28;20020;-67
2021/11/29 05:14:34;;;;;;;20.70;13.25;;;;;;;4.37;97.56;98343.50;5088106;28;20039;-67
2021/11/29 05:17:00;;;;;;;19.65;13.25;;;;;;;4.31;97.50;98335.25;5090300;28;20035;-67
2021/11/29 05:19:25;;;;;;;21.95;13.82;;;;;;;4.25;97.56;98325.22;5090283;28;20020;-66
2021/11/29 05:21:51;;;;;;;20.73;13.13;;;;;;;4.25;97.50;98344.63;5092533;28;20036;-66
2021/11/29 05:24:16;;;;;;;20.70;14.13;;;;;;;4.17;96.89;98323.31;5094329;28;20055;-67
2021/11/29 05:26:42;;;;;;;22.08;13.32;;;;;;;4.19;96.70;98349.66;5094031;28;20107;-66
2021/11/29 05:29:07;;;;;;;20.13;12.85;;;;;;;4.09;97.48;98335.59;5094144;28;20032;-67
2021/11/29 05:31:33;;;;;;;18.95;12.77;;;;;;;4.10;97.90;98347.88;5075918;28;20085;-67
2021/11/29 05:34:01;;;;;;;20.33;13.35;;;;;;;4.04;98.21;98361.72;5093887;28;20024;-66
2021/11/29 05:36:26;;;;;;;18.70;12.70;;;;;;;3.95;97.61;98350.13;5075772;28;20024;-66
2021/11/29 05:38:52;;;;;;;19.02;12.93;;;;;;;3.96;97.28;98357.09;5093980;28;20368;-67
2021/11/29 05:41:17;;;;;;;21.25;13.57;;;;;;;3.94;97.70;98363.53;5093870;28;20089;-66
2021/11/29 05:43:43;;;;;;;20.50;13.25;;;;;;;3.98;97.86;98370.22;5093862;28;20082;-67
2021/11/29 05:46:09;;;;;;;20.05;13.32;;;;;;;3.96;97.44;98359.75;5093426;28;20028;-66
2021/11/29 05:48:34;;;;;;;20.55;13.20;;;;;;;3.92;97.23;98362.84;5070940;28;20107;-66
2021/11/29 05:51:00;;;;;;;21.67;13.95;;;;;;;3.88;97.18;98366.75;5086037;28;20012;-66
2021/11/29 05:53:26;;;;;;;21.98;13.45;;;;;;;3.85;97.50;98367.88;5091700;28;20031;-66
2021/11/29 05:55:52;;;;;;;22.17;13.38;;;;;;;3.79;98.29;98356.97;5089341;28;20091;-66
2021/11/29 05:58:17;;;;;;;24.00;13.98;;;;;;;3.83;98.36;98376.91;5090199;28;20051;-66
2021/11/29 06:00:43;;;;;;;23.58;14.63;;;;;;;3.71;98.87;98362.16;5092919;28;20020;-66
2021/11/29 06:03:09;;;;;;;20.80;14.13;;;;;;;3.76;98.99;98376.66;5093783;28;20023;-66
2021/11/29 06:05:35;;;;;;;21.83;14.25;;;;;;;3.73;99.53;98386.69;5093657;28;20028;-66
2021/11/29 06:08:01;;;;;;;22.35;14.15;;;;;;;3.67;99.97;98381.94;5093294;28;20089;-66
2021/11/29 06:10:26;;;;;;;23.55;14.55;;;;;;;3.65;100.00;98381.25;5093484;28;20020;-66
2021/11/29 06:12:52;;;;;;;22.17;14.38;;;;;;;3.72;100.00;98392.97;5088049;28;20430;-66
2021/11/29 06:15:17;;;;;;;20.77;14.13;;;;;;;3.68;100.00;98379.16;5075082;28;20094;-67
2021/11/29 06:17:44;;;;;;;21.23;12.93;;;;;;;3.72;100.00;98382.38;5093587;28;20032;-67
2021/11/29 06:20:12;;;;;;;23.13;14.18;;;;;;;3.74;100.00;98402.47;5093285;28;20024;-66
2021/11/29 06:22:38;;;;;;;20.60;14.02;;;;;;;3.73;100.00;98411.41;5073893;28;20031;-66
2021/11/29 06:25:04;;;;;;;21.73;14.48;;;;;;;3.77;100.00;98422.56;5092987;28;20548;-67
2021/11/29 06:27:30;;;;;;;24.10;14.65;;;;;;;3.80;100.00;98443.47;5093074;28;20048;-66
2021/11/29 06:29:55;;;;;;;19.40;13.65;;;;;;;3.77;100.00;98446.44;5074644;28;20031;-66
2021/11/29 06:32:23;;;;;;;21.88;13.60;;;;;;;3.82;100.00;98454.78;5092360;28;20020;-66
2021/11/29 06:34:49;;;;;;;20.77;14.13;;;;;;;3.84;100.00;98461.63;5074785;28;20043;-67
2021/11/29 06:37:15;;;;;;;20.30;13.32;;;;;;;3.80;100.00;98454.06;5092223;28;20028;-66
2021/11/29 06:39:41;;;;;;;23.20;14.20;;;;;;;3.88;100.00;98467.50;5092050;28;20422;-66
2021/11/29 06:42:08;;;;;;;21.90;13.55;;;;;;;3.90;100.00;98465.56;5091670;28;20024;-66
2021/11/29 06:44:34;;;;;;;23.90;14.15;;;;;;;3.95;100.00;98476.56;5091716;28;20038;-67
2021/11/29 06:46:59;;;;;;;25.15;14.70;;;;;;;3.96;100.00;98476.44;5092075;28;20047;-67
2021/11/29 06:49:26;;;;;;;23.55;13.70;;;;;;;3.91;100.00;98467.22;5092624;28;20024;-66
2021/11/29 06:51:52;;;;;;;24.98;15.00;;;;;;;4.00;100.00;98483.13;5092472;28;20387;-67
2021/11/29 06:54:17;;;;;;;27.02;14.93;;;;;;;4.01;100.00;98476.03;5092266;28;20031;-66
2021/11/29 06:56:43;;;;;;;25.60;14.75;;;;;;;4.02;100.00;98480.34;5092521;28;20380;-67
2021/11/29 06:59:09;;;;;;;25.67;15.80;;;;;;;4.12;99.52;98483.84;5092064;28;20509;-67
2021/11/29 07:01:34;;;;;;;26.38;16.48;;;;;;;4.13;99.75;98482.88;5092476;28;20460;-67
2021/11/29 07:04:00;;;;;;;32.40;16.33;;;;;;;4.18;98.73;98488.59;5092184;28;20039;-67
2021/11/29 07:06:26;;;;;;;25.02;15.98;;;;;;;4.12;98.70;98497.09;5092258;28;20039;-66
2021/11/29 07:08:52;;;;;;;26.52;16.10;;;;;;;4.11;99.50;98498.94;5073926;28;20043;-67
2021/11/29 07:11:18;;;;;;;25.60;16.10;;;;;;;4.21;99.64;98522.78;5092165;28;20036;-67
2021/11/29 07:13:44;;;;;;;28.30;17.38;;;;;;;4.26;99.20;98515.28;5073981;28;20039;-67
2021/11/29 07:16:09;;;;;;;26.92;16.00;;;;;;;4.30;98.78;98529.91;5092084;28;20384;-66
2021/11/29 07:18:35;;;;;;;30.48;17.75;;;;;;;4.27;99.03;98530.19;5092017;28;20027;-67
2021/11/29 07:21:00;;;;;;;30.67;17.77;;;;;;;4.31;99.07;98528.94;5092200;28;20031;-67
2021/11/29 07:23:26;;;;;;;27.13;16.73;;;;;;;4.29;99.07;98509.69;5073649;28;20531;-67
2021/11/29 07:25:51;;;;;;;28.63;16.80;;;;;;;4.41;98.15;98517.34;5073480;28;20027;-66
2021/11/29 07:28:17;;;;;;;26.98;15.90;;;;;;;4.36;98.08;98508.16;5091586;28;20087;-66
2021/11/29 07:30:43;;;;;;;30.45;17.30;;;;;;;4.32;98.61;98509.41;5091987;28;20027;-67
2021/11/29 07:33:08;;;;;;;28.05;16.63;;;;;;;4.43;98.61;98514.56;5091615;28;20059;-67
2021/11/29 07:35:34;;;;;;;28.05;17.40;;;;;;;4.39;97.98;98502.56;5090948;28;20028;-68
2021/11/29 07:37:59;;;;;;;25.33;16.20;;;;;;;4.55;97.63;98508.94;5091116;28;20024;-66
2021/11/29 07:40:28;;;;;;;26.63;17.13;;;;;;;4.60;95.60;98506.72;5091563;28;20071;-66
2021/11/29 07:42:59;;;;;;;24.45;15.75;;;;;;;4.66;95.70;98513.28;5091420;28;20089;-66
2021/11/29 07:45:25;;;;;;;27.33;16.90;;;;;;;4.64;95.40;98512.56;5090391;28;20024;-67
2021/11/29 07:47:50;;;;;;;26.65;16.63;;;;;;;4.67;93.71;98518.44;5091403;28;20023;-67
2021/11/29 07:50:17;;;;;;;28.10;16.98;;;;;;;4.72;92.91;98526.00;5091235;28;20024;-67
2021/11/29 07:52:45;;;;;;;25.38;15.90;;;;;;;4.77;91.67;98522.91;5089242;28;20038;-67
2021/11/29 07:55:12;;;;;;;25.40;15.57;;;;;;;4.64;92.37;98517.88;5091244;28;20024;-67
2021/11/29 07:57:39;;;;;;;25.17;15.60;;;;;;;4.68;92.34;98524.59;5091428;28;20081;-68
2021/11/29 08:00:08;;;;;;;24.45;15.43;;;;;;;4.68;92.55;98522.75;5091272;28;20115;-66
2021/11/29 08:02:33;;;;;;;23.92;15.93;;;;;;;4.66;92.06;98519.44;5091350;28;20039;-66
2021/11/29 08:04:59;;;;;;;24.88;15.40;;;;;;;4.49;92.13;98500.72;5091235;28;20031;-67
2021/11/29 08:07:25;;;;;;;30.73;16.77;;;;;;;4.59;92.70;98520.97;5073073;28;20115;-66
2021/11/29 08:09:51;;;;;;;23.83;15.02;;;;;;;4.56;93.00;98517.75;5090845;28;20512;-68
2021/11/29 08:12:16;;;;;;;23.23;15.45;;;;;;;4.57;92.46;98520.28;5091281;28;20381;-66
2021/11/29 08:14:42;;;;;;;27.83;16.65;;;;;;;4.53;93.07;98518.03;5091042;28;20016;-67
2021/11/29 08:17:07;;;;;;;29.10;17.95;;;;;;;4.51;93.44;98534.09;5090965;28;20206;-67
2021/11/29 08:19:33;;;;;;;25.58;15.90;;;;;;;4.41;94.42;98521.81;5090896;28;20024;-67
2021/11/29 08:21:58;;;;;;;26.42;16.27;;;;;;;4.45;93.85;98531.19;5090882;28;20032;-68
2021/11/29 08:24:24;;;;;;;22.85;14.52;;;;;;;4.64;92.71;98549.75;5090796;28;20043;-67
2021/11/29 08:26:49;;;;;;;24.48;14.80;;;;;;;4.58;92.66;98553.78;5072341;28;20032;-67
2021/11/29 08:29:15;;;;;;;23.95;15.38;;;;;;;4.56;92.93;98561.09;5091098;28;20430;-68
2021/11/29 08:31:41;;;;;;;22.50;15.02;;;;;;;4.55;92.13;98556.72;5090928;28;20021;-67
2021/11/29 08:34:06;;;;;;;23.13;14.85;;;;;;;4.56;92.57;98570.84;5090781;28;20481;-66
2021/11/29 08:36:34;;;;;;;25.23;15.30;;;;;;;4.52;92.91;98564.97;5072714;28;20073;-67
2021/11/29 08:38:59;;;;;;;24.42;16.08;;;;;;;4.52;91.99;98569.47;5090669;28;20032;-66
2021/11/29 08:41:25;;;;;;;26.52;15.77;;;;;;;4.70;89.90;98586.34;5090606;28;20073;-66
2021/11/29 08:43:50;;;;;;;22.90;14.95;;;;;;;4.69;89.18;98598.81;5090687;28;20163;-67
2021/11/29 08:46:16;;;;;;;25.85;15.88;;;;;;;4.62;89.85;98602.16;5072605;28;20088;-67
2021/11/29 08:48:42;;;;;;;24.02;13.73;;;;;;;4.64;90.06;98595.72;5090666;28;20677;-67
2021/11/29 08:51:07;;;;;;;23.42;13.57;;;;;;;4.69;88.18;98592.66;5090506;28;20031;-66
2021/11/29 08:53:36;;;;;;;22.90;15.18;;;;;;;4.55;89.38;98598.38;5090631;28;20067;-66
2021/11/29 08:56:02;;;;;;;23.90;15.02;;;;;;;4.68;88.68;98598.94;5091505;28;20043;-67
2021/11/29 08:58:27;;;;;;;24.98;14.27;;;;;;;4.67;88.55;98597.25;5094751;28;20050;-66
2021/11/29 09:00:55;;;;;;;25.45;15.60;;;;;;;4.70;89.34;98594.31;5094675;28;20087;-66
2021/11/29 09:03:20;;;;;;;22.23;14.27;;;;;;;4.69;89.08;98592.66;5094533;28;20020;-66
2021/11/29 09:05:47;;;;;;;27.98;15.93;;;;;;;4.62;89.90;98587.03;5094745;28;20380;-67
2021/11/29 09:08:13;;;;;;;25.15;15.07;;;;;;;4.61;89.51;98590.69;5076060;28;20032;-66
2021/11/29 09:10:41;;;;;;;25.92;14.55;;;;;;;4.59;90.15;98592.63;5089864;28;20047;-66
2021/11/29 09:13:07;;;;;;;24.20;15.07;;;;;;;4.61;89.48;98592.50;5091746;28;20027;-66
2021/11/29 09:15:33;;;;;;;23.35;14.60;;;;;;;4.61;89.63;98587.19;5075923;28;20059;-66
2021/11/29 09:17:59;;;;;;;21.88;14.90;;;;;;;4.63;90.61;98599.34;5094079;28;20103;-66
2021/11/29 09:20:27;;;;;;;24.85;14.80;;;;;;;4.54;90.36;98594.03;5094200;28;20088;-66
2021/11/29 09:22:54;;;;;;;24.45;15.18;;;;;;;4.61;89.94;98600.44;5094103;28;20024;-67
2021/11/29 09:25:23;;;;;;;23.98;14.93;;;;;;;4.63;90.67;98619.75;5094216;28;20032;-66
2021/11/29 09:27:49;;;;;;;26.02;15.77;;;;;;;4.64;90.50;98616.94;5094002;28;20051;-66
2021/11/29 09:30:17;;;;;;;24.92;15.45;;;;;;;4.64;90.12;98611.66;5094084;28;20081;-66
2021/11/29 09:32:42;;;;;;;22.70;14.88;;;;;;;4.65;89.21;98621.28;5094147;28;20031;-66
2021/11/29 09:35:12;;;;;;;23.13;15.88;;;;;;;4.76;88.53;98628.28;5093997;28;20047;-66
2021/11/29 09:37:38;;;;;;;26.10;15.20;;;;;;;4.73;88.51;98633.84;5094048;28;20031;-67
2021/11/29 09:40:06;;;;;;;22.85;13.77;;;;;;;4.82;87.21;98627.72;5075503;28;20035;-68
2021/11/29 09:42:33;;;;;;;25.20;14.85;;;;;;;4.71;88.18;98622.56;5093946;28;20028;-68
2021/11/29 09:44:58;;;;;;;22.17;14.30;;;;;;;4.78;88.71;98619.19;5093602;28;20032;-67
2021/11/29 09:47:24;;;;;;;19.75;13.98;;;;;;;4.78;87.42;98610.41;5075671;28;20031;-68
2021/11/29 09:49:54;;;;;;;20.95;13.80;;;;;;;4.77;86.81;98602.56;5093819;28;20034;-67
2021/11/29 09:52:20;;;;;;;27.05;15.40;;;;;;;4.83;87.99;98617.94;5093684;28;20031;-67
2021/11/29 09:54:46;;;;;;;23.30;15.07;;;;;;;4.72;88.80;98598.53;5093622;28;20587;-66
2021/11/29 09:57:12;;;;;;;21.65;13.90;;;;;;;4.78;87.39;98597.94;5093480;28;20028;-67
2021/11/29 09:59:37;;;;;;;23.42;14.48;;;;;;;4.68;87.67;98593.63;5093413;28;20032;-67
2021/11/29 10:02:08;;;;;;;23.50;13.95;;;;;;;4.78;86.88;98612.19;5093467;28;20063;-67
2021/11/29 10:04:33;;;;;;;22.38;14.25;;;;;;;4.80;86.83;98615.56;5093465;28;20031;-67
2021/11/29 10:07:03;;;;;;;24.25;15.10;;;;;;;4.80;86.96;98605.75;5092675;28;20024;-68
2021/11/29 10:09:38;;;;;;;21.38;13.43;;;;;;;4.83;86.10;98612.63;5092752;28;20089;-67
2021/11/29 10:12:09;;;;;;;22.42;14.00;;;;;;;4.90;84.02;98603.13;5075199;28;20031;-67
2021/11/29 10:14:35;;;;;;;19.45;13.43;;;;;;;4.80;85.09;98602.28;5074996;28;20046;-66
2021/11/29 10:17:01;;;;;;;21.40;14.93;;;;;;;4.92;83.77;98609.97;5093068;28;20534;-66
2021/11/29 10:19:26;;;;;;;24.20;14.43;;;;;;;4.92;83.78;98593.16;5093038;28;20032;-66
2021/11/29 10:21:53;;;;;;;22.95;12.93;;;;;;;4.80;84.89;98589.84;5093334;28;20388;-66
2021/11/29 10:24:19;;;;;;;21.58;13.27;;;;;;;4.88;85.67;98579.34;5093048;28;20039;-66
2021/11/29 10:26:54;;;;;;;23.70;14.02;;;;;;;4.88;85.59;98589.97;5092846;28;20525;-66
2021/11/29 10:29:25;;;;;;;24.60;14.85;;;;;;;4.89;85.82;98588.13;5092993;28;20428;-66
2021/11/29 10:31:54;;;;;;;22.05;14.30;;;;;;;4.81;86.88;98572.09;5092811;28;20027;-66
2021/11/29 10:34:23;;;;;;;23.80;14.15;;;;;;;4.75;87.90;98578.81;5092936;28;20030;-65
2021/11/29 10:36:54;;;;;;;19.60;12.98;;;;;;;4.82;87.11;98577.25;5093017;28;20098;-66
2021/11/29 10:39:42;;;;;;;19.52;12.45;;;;;;;4.96;84.79;98576.81;5074588;28;20028;-66
2021/11/29 10:42:12;;;;;;;21.17;12.65;;;;;;;4.85;85.76;98576.13;5092554;28;20031;-66
2021/11/29 10:44:40;;;;;;;19.65;12.70;;;;;;;4.89;84.79;98562.44;5092677;28;20115;-66
2021/11/29 10:47:10;;;;;;;19.73;13.18;;;;;;;5.07;84.14;98589.97;5092353;28;20110;-66
2021/11/29 10:49:42;;;;;;;19.98;12.25;;;;;;;5.06;84.09;98576.81;5092563;28;20450;-66
2021/11/29 10:52:09;;;;;;;19.15;12.55;;;;;;;5.21;82.65;98592.16;5092286;28;20105;-66
2021/11/29 10:54:38;;;;;;;20.52;11.80;;;;;;;5.20;83.29;98603.78;5091723;28;20027;-66
2021/11/29 10:57:04;;;;;;;21.60;13.23;;;;;;;5.12;84.74;98605.47;5091476;28;20024;-67
2021/11/29 10:59:34;;;;;;;19.17;12.95;;;;;;;5.28;82.58;98606.53;5091654;28;20035;-67
2021/11/29 11:02:09;;;;;;;18.02;12.32;;;;;;;5.29;82.21;98615.38;5091761;28;20492;-67
2021/11/29 11:04:41;;;;;;;18.30;11.52;;;;;;;5.17;83.90;98616.50;5091569;28;20020;-67
2021/11/29 11:07:14;;;;;;;20.13;12.80;;;;;;;5.26;82.94;98608.53;5073104;28;20492;-67
2021/11/29 11:09:49;;;;;;;16.85;12.10;;;;;;;5.40;81.57;98621.34;5089222;28;20023;-67
2021/11/29 11:12:14;;;;;;;17.58;10.77;;;;;;;5.47;79.95;98610.97;5091549;28;20046;-67
2021/11/29 11:14:53;;;;;;;18.02;10.77;;;;;;;5.59;78.97;98626.63;5091509;28;20083;-66
2021/11/29 11:17:28;;;;;;;18.75;12.07;;;;;;;5.65;78.10;98628.69;5091201;28;20042;-66
2021/11/29 11:20:02;;;;;;;15.32;10.50;;;;;;;5.62;78.68;98626.34;5091352;28;20469;-66